sensor_id;sensor_type;location;lat;lon;timestamp;pressure;altitude;pressure_sealevel;temperature;humidity
66430;BME280;53242;51.694;10.006;2022-08-07T00:01:09;100576.16;;;16.00;51.01
66430;BME280;53242;51.694;10.006;2022-08-07T00:03:32;100577.59;;;15.89;51.36
66430;BME280;53242;51.694;10.006;2022-08-07T00:05:55;100579.84;;;15.99;50.97
66430;BME280;53242;51.694;10.006;2022-08-07T00:08:18;100584.34;;;16.05;51.23
66430;BME280;53242;51.694;10.006;2022-08-07T00:10:41;100581.25;;;16.08;51.13
66430;BME280;53242;51.694;10.006;2022-08-07T00:13:05;100579.44;;;16.02;51.05
66430;BME280;53242;51.694;10.006;2022-08-07T00:15:28;100582.09;;;16.02;51.53
66430;BME280;53242;51.694;10.006;2022-08-07T00:17:52;100578.41;;;15.97;51.74
66430;BME280;53242;51.694;10.006;2022-08-07T00:20:14;100573.91;;;15.97;51.80
66430;BME280;53242;51.694;10.006;2022-08-07T00:22:36;100582.09;;;16.02;51.21
66430;BME280;53242;51.694;10.006;2022-08-07T00:24:59;100578.22;;;16.05;51.59
66430;BME280;53242;51.694;10.006;2022-08-07T00:27:21;100572.88;;;15.91;52.24
66430;BME280;53242;51.694;10.006;2022-08-07T00:29:44;100576.16;;;16.00;52.15
66430;BME280;53242;51.694;10.006;2022-08-07T00:32:06;100579.22;;;15.97;52.01
66430;BME280;53242;51.694;10.006;2022-08-07T00:34:29;100572.84;;;15.85;52.38
66430;BME280;53242;51.694;10.006;2022-08-07T00:36:52;100569.31;;;15.77;52.66
66430;BME280;53242;51.694;10.006;2022-08-07T00:39:14;100565.00;;;15.76;52.47
66430;BME280;53242;51.694;10.006;2022-08-07T00:41:38;100559.69;;;15.76;52.26
66430;BME280;53242;51.694;10.006;2022-08-07T00:44:01;100566.03;;;15.62;52.88
66430;BME280;53242;51.694;10.006;2022-08-07T00:46:24;100572.78;;;15.65;52.70
66430;BME280;53242;51.694;10.006;2022-08-07T00:48:47;100566.66;;;15.71;52.69
66430;BME280;53242;51.694;10.006;2022-08-07T00:51:09;100564.19;;;15.69;52.95
66430;BME280;53242;51.694;10.006;2022-08-07T00:53:32;100564.59;;;15.66;52.92
66430;BME280;53242;51.694;10.006;2022-08-07T00:55:55;100560.50;;;15.63;52.96
66430;BME280;53242;51.694;10.006;2022-08-07T00:58:18;100562.34;;;15.70;53.25
66430;BME280;53242;51.694;10.006;2022-08-07T01:00:41;100563.34;;;15.62;53.43
66430;BME280;53242;51.694;10.006;2022-08-07T01:03:04;100552.28;;;15.58;53.63
66430;BME280;53242;51.694;10.006;2022-08-07T01:05:27;100555.34;;;15.49;53.88
66430;BME280;53242;51.694;10.006;2022-08-07T01:07:51;100559.66;;;15.50;54.04
66430;BME280;53242;51.694;10.006;2022-08-07T01:10:13;100547.16;;;15.43;54.29
66430;BME280;53242;51.694;10.006;2022-08-07T01:12:37;100546.94;;;15.45;54.50
66430;BME280;53242;51.694;10.006;2022-08-07T01:15:03;100545.91;;;15.39;54.60
66430;BME280;53242;51.694;10.006;2022-08-07T01:17:26;100546.09;;;15.38;54.67
66430;BME280;53242;51.694;10.006;2022-08-07T01:19:49;100545.28;;;15.37;54.52
66430;BME280;53242;51.694;10.006;2022-08-07T01:22:12;100551.41;;;15.31;54.96
66430;BME280;53242;51.694;10.006;2022-08-07T01:24:36;100541.19;;;15.28;55.15
66430;BME280;53242;51.694;10.006;2022-08-07T01:26:59;100553.63;;;15.27;55.41
66430;BME280;53242;51.694;10.006;2022-08-07T01:29:23;100546.06;;;15.18;55.80
66430;BME280;53242;51.694;10.006;2022-08-07T01:31:48;100550.97;;;15.21;55.92
66430;BME280;53242;51.694;10.006;2022-08-07T01:34:11;100550.13;;;15.13;56.40
66430;BME280;53242;51.694;10.006;2022-08-07T01:36:37;100552.16;;;15.11;56.45
66430;BME280;53242;51.694;10.006;2022-08-07T01:39:06;100545.97;;;15.04;56.79
66430;BME280;53242;51.694;10.006;2022-08-07T01:41:28;100563.19;;;15.08;56.63
66430;BME280;53242;51.694;10.006;2022-08-07T01:43:55;100567.06;;;15.06;56.66
66430;BME280;53242;51.694;10.006;2022-08-07T01:46:19;100554.34;;;14.94;57.58
66430;BME280;53242;51.694;10.006;2022-08-07T01:48:42;100548.59;;;14.91;57.41
66430;BME280;53242;51.694;10.006;2022-08-07T01:51:07;100549.38;;;14.85;57.71
66430;BME280;53242;51.694;10.006;2022-08-07T01:53:33;100544.84;;;14.78;57.73
66430;BME280;53242;51.694;10.006;2022-08-07T01:56:05;100539.50;;;14.78;57.85
66430;BME280;53242;51.694;10.006;2022-08-07T01:58:33;100540.31;;;14.72;58.14
66430;BME280;53242;51.694;10.006;2022-08-07T02:01:05;100548.66;;;14.69;58.29
66430;BME280;53242;51.694;10.006;2022-08-07T02:03:32;100555.00;;;14.68;58.13
66430;BME280;53242;51.694;10.006;2022-08-07T02:06:01;100547.78;;;14.62;58.37
66430;BME280;53242;51.694;10.006;2022-08-07T02:08:33;100550.63;;;14.60;58.31
66430;BME280;53242;51.694;10.006;2022-08-07T02:10:59;100541.22;;;14.58;58.38
66430;BME280;53242;51.694;10.006;2022-08-07T02:13:27;100546.13;;;14.54;58.28
66430;BME280;53242;51.694;10.006;2022-08-07T02:15:51;100540.59;;;14.56;58.41
66430;BME280;53242;51.694;10.006;2022-08-07T02:18:15;100536.28;;;14.55;58.14
66430;BME280;53242;51.694;10.006;2022-08-07T02:20:40;100543.03;;;14.51;58.10
66430;BME280;53242;51.694;10.006;2022-08-07T02:23:05;100536.88;;;14.50;58.54
66430;BME280;53242;51.694;10.006;2022-08-07T02:25:30;100532.34;;;14.44;58.66
66430;BME280;53242;51.694;10.006;2022-08-07T02:27:57;100533.69;;;14.33;59.03
66430;BME280;53242;51.694;10.006;2022-08-07T02:30:22;100536.59;;;14.38;58.99
66430;BME280;53242;51.694;10.006;2022-08-07T02:32:48;100530.28;;;14.39;59.06
66430;BME280;53242;51.694;10.006;2022-08-07T02:35:11;100529.63;;;14.37;59.17
66430;BME280;53242;51.694;10.006;2022-08-07T02:37:39;100527.38;;;14.34;58.97
66430;BME280;53242;51.694;10.006;2022-08-07T02:40:05;100524.09;;;14.32;58.78
66430;BME280;53242;51.694;10.006;2022-08-07T02:42:30;100525.66;;;14.20;59.54
66430;BME280;53242;51.694;10.006;2022-08-07T02:44:55;100528.91;;;14.22;59.19
66430;BME280;53242;51.694;10.006;2022-08-07T02:47:20;100524.19;;;14.17;59.68
66430;BME280;53242;51.694;10.006;2022-08-07T02:49:46;100529.50;;;14.17;59.68
66430;BME280;53242;51.694;10.006;2022-08-07T02:52:10;100532.41;;;14.22;59.41
66430;BME280;53242;51.694;10.006;2022-08-07T02:54:39;100526.41;;;14.13;59.80
66430;BME280;53242;51.694;10.006;2022-08-07T02:57:03;100531.06;;;14.11;59.95
66430;BME280;53242;51.694;10.006;2022-08-07T02:59:27;100535.34;;;14.06;60.11
66430;BME280;53242;51.694;10.006;2022-08-07T03:01:55;100528.81;;;14.08;60.25
66430;BME280;53242;51.694;10.006;2022-08-07T03:04:20;100525.72;;;14.05;59.73
66430;BME280;53242;51.694;10.006;2022-08-07T03:06:45;100532.69;;;14.06;59.76
66430;BME280;53242;51.694;10.006;2022-08-07T03:09:10;100530.78;;;14.00;60.06
66430;BME280;53242;51.694;10.006;2022-08-07T03:11:34;100533.84;;;13.96;60.28
66430;BME280;53242;51.694;10.006;2022-08-07T03:14:00;100540.53;;;13.92;60.44
66430;BME280;53242;51.694;10.006;2022-08-07T03:16:23;100531.94;;;13.90;60.29
66430;BME280;53242;51.694;10.006;2022-08-07T03:18:47;100536.19;;;13.85;60.48
66430;BME280;53242;51.694;10.006;2022-08-07T03:21:10;100538.84;;;13.85;60.71
66430;BME280;53242;51.694;10.006;2022-08-07T03:23:34;100536.78;;;13.87;60.43
66430;BME280;53242;51.694;10.006;2022-08-07T03:25:59;100534.91;;;13.80;60.92
66430;BME280;53242;51.694;10.006;2022-08-07T03:28:28;100541.09;;;13.88;60.48
66430;BME280;53242;51.694;10.006;2022-08-07T03:30:52;100538.63;;;13.86;60.49
66430;BME280;53242;51.694;10.006;2022-08-07T03:33:34;100534.84;;;13.74;60.74
66430;BME280;53242;51.694;10.006;2022-08-07T03:35:58;100534.84;;;13.74;60.66
66430;BME280;53242;51.694;10.006;2022-08-07T03:38:22;100535.47;;;13.76;60.83
66430;BME280;53242;51.694;10.006;2022-08-07T03:40:45;100537.13;;;13.77;60.50
66430;BME280;53242;51.694;10.006;2022-08-07T03:43:10;100530.78;;;13.78;60.29
66430;BME280;53242;51.694;10.006;2022-08-07T03:45:33;100527.53;;;13.76;60.66
66430;BME280;53242;51.694;10.006;2022-08-07T03:48:01;100527.72;;;13.74;60.83
66430;BME280;53242;51.694;10.006;2022-08-07T03:50:24;100531.69;;;13.63;61.39
66430;BME280;53242;51.694;10.006;2022-08-07T03:52:51;100532.53;;;13.64;61.50
66430;BME280;53242;51.694;10.006;2022-08-07T03:55:15;100538.38;;;13.59;61.86
66430;BME280;53242;51.694;10.006;2022-08-07T03:57:41;100536.97;;;13.63;61.61
66430;BME280;53242;51.694;10.006;2022-08-07T04:00:04;100534.66;;;13.54;62.07
66430;BME280;53242;51.694;10.006;2022-08-07T04:02:37;100524.13;;;13.60;61.66
66430;BME280;53242;51.694;10.006;2022-08-07T04:05:00;100529.47;;;13.67;61.56
66430;BME280;53242;51.694;10.006;2022-08-07T04:07:23;100529.72;;;13.72;61.34
66430;BME280;53242;51.694;10.006;2022-08-07T04:09:47;100537.94;;;13.77;61.31
66430;BME280;53242;51.694;10.006;2022-08-07T04:12:11;100535.75;;;13.81;61.30
66430;BME280;53242;51.694;10.006;2022-08-07T04:14:34;100543.56;;;13.89;61.11
66430;BME280;53242;51.694;10.006;2022-08-07T04:16:57;100542.09;;;13.87;61.17
66430;BME280;53242;51.694;10.006;2022-08-07T04:19:19;100544.41;;;13.90;61.43
66430;BME280;53242;51.694;10.006;2022-08-07T04:21:47;100536.84;;;13.93;61.26
66430;BME280;53242;51.694;10.006;2022-08-07T04:24:11;100544.19;;;13.91;61.32
66430;BME280;53242;51.694;10.006;2022-08-07T04:26:34;100541.34;;;13.93;61.41
66430;BME280;53242;51.694;10.006;2022-08-07T04:28:56;100543.19;;;13.92;61.46
66430;BME280;53242;51.694;10.006;2022-08-07T04:31:22;100545.66;;;13.94;61.53
66430;BME280;53242;51.694;10.006;2022-08-07T04:33:45;100540.84;;;14.04;61.22
66430;BME280;53242;51.694;10.006;2022-08-07T04:36:08;100542.25;;;14.00;61.54
66430;BME280;53242;51.694;10.006;2022-08-07T04:38:31;100548.56;;;13.99;61.74
66430;BME280;53242;51.694;10.006;2022-08-07T04:40:54;100550.97;;;13.94;61.78
66430;BME280;53242;51.694;10.006;2022-08-07T04:43:27;100545.69;;;14.01;61.60
66430;BME280;53242;51.694;10.006;2022-08-07T04:46:02;100550.63;;;14.04;61.58
66430;BME280;53242;51.694;10.006;2022-08-07T04:51:23;100555.94;;;14.04;61.59
66430;BME280;53242;51.694;10.006;2022-08-07T04:56:31;100558.47;;;14.12;61.31
66430;BME280;53242;51.694;10.006;2022-08-07T04:59:11;100561.06;;;14.05;61.42
66430;BME280;53242;51.694;10.006;2022-08-07T05:01:43;100549.41;;;14.06;61.57
66430;BME280;53242;51.694;10.006;2022-08-07T05:04:32;100558.72;;;13.95;62.09
66430;BME280;53242;51.694;10.006;2022-08-07T05:07:06;100559.97;;;14.00;61.61
66430;BME280;53242;51.694;10.006;2022-08-07T05:12:22;100557.22;;;14.08;61.52
66430;BME280;53242;51.694;10.006;2022-08-07T05:14:46;100550.88;;;14.09;61.51
66430;BME280;53242;51.694;10.006;2022-08-07T05:17:13;100561.47;;;14.09;61.79
66430;BME280;53242;51.694;10.006;2022-08-07T05:19:39;100559.22;;;14.06;61.59
66430;BME280;53242;51.694;10.006;2022-08-07T05:22:04;100555.16;;;14.10;61.33
66430;BME280;53242;51.694;10.006;2022-08-07T05:24:33;100557.63;;;14.11;61.43
66430;BME280;53242;51.694;10.006;2022-08-07T05:26:58;100555.59;;;14.13;61.42
66430;BME280;53242;51.694;10.006;2022-08-07T05:29:21;100565.88;;;13.95;63.34
66430;BME280;53242;51.694;10.006;2022-08-07T05:31:47;100561.81;;;13.99;62.33
66430;BME280;53242;51.694;10.006;2022-08-07T05:34:15;100562.75;;;14.13;61.77
66430;BME280;53242;51.694;10.006;2022-08-07T05:36:42;100559.56;;;14.24;61.41
66430;BME280;53242;51.694;10.006;2022-08-07T05:39:15;100564.88;;;14.53;60.37
66430;BME280;53242;51.694;10.006;2022-08-07T05:41:38;100567.28;;;14.69;59.78
66430;BME280;53242;51.694;10.006;2022-08-07T05:44:04;100564.28;;;14.79;60.07
66430;BME280;53242;51.694;10.006;2022-08-07T05:46:28;100570.06;;;14.89;59.70
66430;BME280;53242;51.694;10.006;2022-08-07T05:48:53;100567.66;;;15.01;59.25
66430;BME280;53242;51.694;10.006;2022-08-07T05:51:18;100569.16;;;15.17;59.05
66430;BME280;53242;51.694;10.006;2022-08-07T05:53:40;100581.06;;;15.28;58.89
66430;BME280;53242;51.694;10.006;2022-08-07T05:56:04;100568.03;;;15.46;58.61
66430;BME280;53242;51.694;10.006;2022-08-07T05:58:29;100576.06;;;15.67;58.08
66430;BME280;53242;51.694;10.006;2022-08-07T06:00:51;100578.72;;;15.67;58.26
66430;BME280;53242;51.694;10.006;2022-08-07T06:03:18;100581.22;;;15.82;58.07
66430;BME280;53242;51.694;10.006;2022-08-07T06:05:41;100586.97;;;15.85;57.81
66430;BME280;53242;51.694;10.006;2022-08-07T06:08:05;100583.31;;;15.86;57.84
66430;BME280;53242;51.694;10.006;2022-08-07T06:10:28;100581.25;;;16.08;57.40
66430;BME280;53242;51.694;10.006;2022-08-07T06:12:51;100575.53;;;16.18;57.26
66430;BME280;53242;51.694;10.006;2022-08-07T06:15:15;100581.06;;;16.03;57.84
66430;BME280;53242;51.694;10.006;2022-08-07T06:17:39;100579.22;;;16.37;56.79
66430;BME280;53242;51.694;10.006;2022-08-07T06:20:04;100580.84;;;16.58;56.32
66430;BME280;53242;51.694;10.006;2022-08-07T06:22:28;100582.25;;;16.68;56.05
66430;BME280;53242;51.694;10.006;2022-08-07T06:24:59;100588.22;;;16.70;56.30
66430;BME280;53242;51.694;10.006;2022-08-07T06:27:22;100587.16;;;16.77;56.45
66430;BME280;53242;51.694;10.006;2022-08-07T06:29:47;100593.09;;;16.86;56.00
66430;BME280;53242;51.694;10.006;2022-08-07T06:32:09;100591.69;;;16.77;56.57
66430;BME280;53242;51.694;10.006;2022-08-07T06:34:31;100585.09;;;16.93;56.01
66430;BME280;53242;51.694;10.006;2022-08-07T06:36:55;100582.38;;;17.06;55.81
66430;BME280;53242;51.694;10.006;2022-08-07T06:39:24;100580.94;;;17.17;55.52
66430;BME280;53242;51.694;10.006;2022-08-07T06:42:02;100584.59;;;17.23;55.33
66430;BME280;53242;51.694;10.006;2022-08-07T06:44:46;100574.72;;;17.30;55.20
66430;BME280;53242;51.694;10.006;2022-08-07T06:47:09;100572.94;;;17.17;55.65
66430;BME280;53242;51.694;10.006;2022-08-07T06:49:32;100575.16;;;17.20;55.73
66430;BME280;53242;51.694;10.006;2022-08-07T06:51:55;100573.75;;;17.18;55.46
66430;BME280;53242;51.694;10.006;2022-08-07T06:54:19;100574.72;;;17.30;55.18
66430;BME280;53242;51.694;10.006;2022-08-07T06:56:44;100573.88;;;17.36;55.18
66430;BME280;53242;51.694;10.006;2022-08-07T06:59:19;100568.97;;;17.26;55.35
66430;BME280;53242;51.694;10.006;2022-08-07T07:01:47;100571.41;;;17.35;55.35
66430;BME280;53242;51.694;10.006;2022-08-07T07:04:10;100568.06;;;17.46;54.89
66430;BME280;53242;51.694;10.006;2022-08-07T07:06:36;100568.53;;;17.68;54.60
66430;BME280;53242;51.694;10.006;2022-08-07T07:09:19;100569.25;;;17.57;54.57
66430;BME280;53242;51.694;10.006;2022-08-07T07:11:52;100573.34;;;17.53;54.94
66430;BME280;53242;51.694;10.006;2022-08-07T07:14:18;100559.69;;;17.74;54.13
66430;BME280;53242;51.694;10.006;2022-08-07T07:16:45;100559.38;;;17.89;54.02
66430;BME280;53242;51.694;10.006;2022-08-07T07:19:10;100559.69;;;17.74;54.25
66430;BME280;53242;51.694;10.006;2022-08-07T07:21:41;100560.47;;;17.82;54.15
66430;BME280;53242;51.694;10.006;2022-08-07T07:24:04;100550.94;;;17.92;53.59
66430;BME280;53242;51.694;10.006;2022-08-07T07:26:29;100555.72;;;17.84;54.14
66430;BME280;53242;51.694;10.006;2022-08-07T07:28:57;100558.88;;;18.06;53.61
66430;BME280;53242;51.694;10.006;2022-08-07T07:31:36;100556.72;;;17.89;54.20
66430;BME280;53242;51.694;10.006;2022-08-07T07:34:04;100557.78;;;18.14;53.74
66430;BME280;53242;51.694;10.006;2022-08-07T07:36:29;100561.16;;;18.28;53.52
66430;BME280;53242;51.694;10.006;2022-08-07T07:38:53;100556.66;;;18.47;53.24
66430;BME280;53242;51.694;10.006;2022-08-07T07:41:18;100553.25;;;18.58;53.09
66430;BME280;53242;51.694;10.006;2022-08-07T07:43:43;100552.06;;;18.72;52.79
66430;BME280;53242;51.694;10.006;2022-08-07T07:46:08;100555.34;;;18.74;53.33
66430;BME280;53242;51.694;10.006;2022-08-07T07:48:32;100544.72;;;18.86;52.54
66430;BME280;53242;51.694;10.006;2022-08-07T07:50:56;100538.44;;;19.18;52.42
66430;BME280;53242;51.694;10.006;2022-08-07T07:53:22;100538.75;;;19.40;51.84
66430;BME280;53242;51.694;10.006;2022-08-07T07:55:45;100534.72;;;19.61;50.71
66430;BME280;53242;51.694;10.006;2022-08-07T07:58:08;100533.13;;;19.72;49.90
66430;BME280;53242;51.694;10.006;2022-08-07T08:00:32;100527.94;;;19.89;48.81
66430;BME280;53242;51.694;10.006;2022-08-07T08:02:58;100533.31;;;20.01;47.88
66430;BME280;53242;51.694;10.006;2022-08-07T08:05:22;100534.28;;;20.18;47.94
66430;BME280;53242;51.694;10.006;2022-08-07T08:07:45;100521.09;;;20.41;46.84
66430;BME280;53242;51.694;10.006;2022-08-07T08:10:09;100526.09;;;20.49;46.60
66430;BME280;53242;51.694;10.006;2022-08-07T08:12:33;100525.84;;;20.50;46.10
66430;BME280;53242;51.694;10.006;2022-08-07T08:14:56;100519.91;;;20.48;44.72
66430;BME280;53242;51.694;10.006;2022-08-07T08:17:19;100526.19;;;20.54;44.20
66430;BME280;53242;51.694;10.006;2022-08-07T08:19:43;100526.09;;;20.73;44.10
66430;BME280;53242;51.694;10.006;2022-08-07T08:22:09;100519.16;;;20.89;43.86
66430;BME280;53242;51.694;10.006;2022-08-07T08:24:52;100524.94;;;21.09;43.06
66430;BME280;53242;51.694;10.006;2022-08-07T08:27:36;100524.50;;;21.00;42.28
66430;BME280;53242;51.694;10.006;2022-08-07T08:30:09;100526.25;;;21.24;42.66
66430;BME280;53242;51.694;10.006;2022-08-07T08:32:35;100523.47;;;21.30;42.13
66430;BME280;53242;51.694;10.006;2022-08-07T08:34:58;100515.06;;;21.27;42.01
66430;BME280;53242;51.694;10.006;2022-08-07T08:37:22;100523.81;;;21.51;41.81
66430;BME280;53242;51.694;10.006;2022-08-07T08:39:46;100518.00;;;21.71;41.81
66430;BME280;53242;51.694;10.006;2022-08-07T08:42:26;100518.91;;;21.48;41.23
66430;BME280;53242;51.694;10.006;2022-08-07T08:47:43;100512.84;;;22.04;41.13
66430;BME280;53242;51.694;10.006;2022-08-07T08:50:20;100508.16;;;21.94;40.14
66430;BME280;53242;51.694;10.006;2022-08-07T08:52:52;100509.94;;;21.88;39.89
66430;BME280;53242;51.694;10.006;2022-08-07T08:58:05;100510.03;;;22.10;40.24
66430;BME280;53242;51.694;10.006;2022-08-07T09:00:34;100503.94;;;22.37;40.04
66430;BME280;53242;51.694;10.006;2022-08-07T09:03:11;100506.03;;;22.52;39.63
66430;BME280;53242;51.694;10.006;2022-08-07T09:05:47;100502.91;;;22.60;38.04
66430;BME280;53242;51.694;10.006;2022-08-07T09:11:10;100492.59;;;22.74;36.59
66430;BME280;53242;51.694;10.006;2022-08-07T09:17:03;100493.56;;;23.12;35.17
66430;BME280;53242;51.694;10.006;2022-08-07T09:19:54;100494.53;;;23.28;35.11
66430;BME280;53242;51.694;10.006;2022-08-07T09:30:07;100474.88;;;23.60;34.54
66430;BME280;53242;51.694;10.006;2022-08-07T09:43:06;100447.47;;;23.74;32.61
66430;BME280;53242;51.694;10.006;2022-08-07T09:50:58;100453.06;;;23.94;31.28
66430;BME280;53242;51.694;10.006;2022-08-07T09:53:26;100452.03;;;24.06;31.52
66430;BME280;53242;51.694;10.006;2022-08-07T09:55:57;100452.38;;;24.20;31.62
66430;BME280;53242;51.694;10.006;2022-08-07T10:01:31;100449.75;;;23.87;31.13
66430;BME280;53242;51.694;10.006;2022-08-07T10:04:19;100439.75;;;24.25;31.18
66430;BME280;53242;51.694;10.006;2022-08-07T10:12:13;100437.97;;;24.57;30.79
66430;BME280;53242;51.694;10.006;2022-08-07T10:20:11;100421.03;;;24.08;30.31
66430;BME280;53242;51.694;10.006;2022-08-07T10:22:44;100424.84;;;24.12;31.08
66430;BME280;53242;51.694;10.006;2022-08-07T10:28:07;100415.59;;;24.56;30.34
66430;BME280;53242;51.694;10.006;2022-08-07T10:30:50;100418.28;;;24.56;29.84
66430;BME280;53242;51.694;10.006;2022-08-07T10:39:07;100414.50;;;24.57;30.31
66430;BME280;53242;51.694;10.006;2022-08-07T10:41:34;100414.84;;;24.82;30.46
66430;BME280;53242;51.694;10.006;2022-08-07T10:46:45;100404.91;;;25.18;29.50
66430;BME280;53242;51.694;10.006;2022-08-07T10:49:22;100398.94;;;24.85;29.77
66430;BME280;53242;51.694;10.006;2022-08-07T10:51:56;100393.81;;;24.78;30.16
66430;BME280;53242;51.694;10.006;2022-08-07T10:54:43;100396.13;;;24.49;30.07
66430;BME280;53242;51.694;10.006;2022-08-07T10:57:47;100391.91;;;24.74;30.14
66430;BME280;53242;51.694;10.006;2022-08-07T11:00:14;100386.50;;;24.84;30.29
66430;BME280;53242;51.694;10.006;2022-08-07T11:02:56;100384.38;;;25.02;29.65
66430;BME280;53242;51.694;10.006;2022-08-07T11:13:33;100385.97;;;24.77;29.04
66430;BME280;53242;51.694;10.006;2022-08-07T11:16:07;100373.81;;;24.64;28.80
66430;BME280;53242;51.694;10.006;2022-08-07T11:18:38;100370.03;;;24.91;29.69
66430;BME280;53242;51.694;10.006;2022-08-07T11:21:08;100369.53;;;25.15;28.92
66430;BME280;53242;51.694;10.006;2022-08-07T11:23:48;100378.44;;;25.25;29.12
66430;BME280;53242;51.694;10.006;2022-08-07T11:29:04;100364.94;;;25.36;29.31
66430;BME280;53242;51.694;10.006;2022-08-07T11:32:00;100360.59;;;25.50;29.27
66430;BME280;53242;51.694;10.006;2022-08-07T11:34:52;100354.94;;;25.47;28.06
66430;BME280;53242;51.694;10.006;2022-08-07T11:48:53;100340.53;;;25.72;29.02
66430;BME280;53242;51.694;10.006;2022-08-07T11:54:15;100337.34;;;24.56;30.24
66430;BME280;53242;51.694;10.006;2022-08-07T12:05:47;100332.84;;;24.04;31.12
66430;BME280;53242;51.694;10.006;2022-08-07T12:08:21;100328.31;;;24.14;30.35
66430;BME280;53242;51.694;10.006;2022-08-07T12:13:51;100328.31;;;24.14;31.30
66430;BME280;53242;51.694;10.006;2022-08-07T12:16:18;100321.06;;;24.25;31.04
66430;BME280;53242;51.694;10.006;2022-08-07T12:19:12;100318.66;;;24.39;30.39
66430;BME280;53242;51.694;10.006;2022-08-07T12:21:59;100311.69;;;24.49;30.44
66430;BME280;53242;51.694;10.006;2022-08-07T12:25:04;100314.16;;;24.66;30.55
66430;BME280;53242;51.694;10.006;2022-08-07T12:27:53;100307.16;;;24.90;30.10
66430;BME280;53242;51.694;10.006;2022-08-07T12:30:18;100298.25;;;24.85;29.32
66430;BME280;53242;51.694;10.006;2022-08-07T12:32:59;100304.16;;;24.87;29.58
66430;BME280;53242;51.694;10.006;2022-08-07T12:35:21;100305.47;;;24.58;28.44
66430;BME280;53242;51.694;10.006;2022-08-07T12:37:47;100293.38;;;24.66;28.46
66430;BME280;53242;51.694;10.006;2022-08-07T12:40:11;100299.84;;;24.81;28.22
66430;BME280;53242;51.694;10.006;2022-08-07T12:42:36;100293.66;;;24.75;27.38
66430;BME280;53242;51.694;10.006;2022-08-07T12:45:04;100295.28;;;24.86;27.86
66430;BME280;53242;51.694;10.006;2022-08-07T12:47:39;100289.31;;;24.94;28.00
66430;BME280;53242;51.694;10.006;2022-08-07T12:50:21;100293.09;;;25.04;28.27
66430;BME280;53242;51.694;10.006;2022-08-07T12:52:58;100279.56;;;25.09;27.96
66430;BME280;53242;51.694;10.006;2022-08-07T12:55:40;100275.75;;;25.31;28.27
66430;BME280;53242;51.694;10.006;2022-08-07T12:58:05;100281.38;;;25.60;28.27
66430;BME280;53242;51.694;10.006;2022-08-07T13:00:51;100278.44;;;25.51;28.10
66430;BME280;53242;51.694;10.006;2022-08-07T13:03:34;100282.72;;;25.63;27.66
66430;BME280;53242;51.694;10.006;2022-08-07T13:08:49;100281.66;;;25.64;28.01
66430;BME280;53242;51.694;10.006;2022-08-07T13:11:48;100265.47;;;25.53;27.98
66430;BME280;53242;51.694;10.006;2022-08-07T13:17:04;100275.94;;;25.70;27.93
66430;BME280;53242;51.694;10.006;2022-08-07T13:19:51;100269.00;;;25.43;28.01
66430;BME280;53242;51.694;10.006;2022-08-07T13:22:18;100268.50;;;25.36;28.20
66430;BME280;53242;51.694;10.006;2022-08-07T13:25:10;100267.94;;;25.29;28.06
66430;BME280;53242;51.694;10.006;2022-08-07T13:27:50;100263.09;;;25.21;28.45
66430;BME280;53242;51.694;10.006;2022-08-07T13:30:15;100267.13;;;25.28;28.37
66430;BME280;53242;51.694;10.006;2022-08-07T13:32:49;100255.78;;;25.37;28.76
66430;BME280;53242;51.694;10.006;2022-08-07T13:38:28;100259.81;;;25.34;28.22
66430;BME280;53242;51.694;10.006;2022-08-07T13:41:01;100253.34;;;25.46;28.57
66430;BME280;53242;51.694;10.006;2022-08-07T13:43:26;100248.44;;;25.48;28.41
66430;BME280;53242;51.694;10.006;2022-08-07T13:45:54;100243.59;;;25.44;28.19
66430;BME280;53242;51.694;10.006;2022-08-07T13:48:19;100242.81;;;25.44;27.59
66430;BME280;53242;51.694;10.006;2022-08-07T13:50:42;100247.03;;;25.60;27.66
66430;BME280;53242;51.694;10.006;2022-08-07T13:53:06;100243.59;;;25.50;27.90
66430;BME280;53242;51.694;10.006;2022-08-07T13:55:29;100239.75;;;25.61;28.10
66430;BME280;53242;51.694;10.006;2022-08-07T13:58:06;100236.69;;;25.78;27.81
66430;BME280;53242;51.694;10.006;2022-08-07T14:00:48;100235.44;;;25.60;28.02
66430;BME280;53242;51.694;10.006;2022-08-07T14:03:11;100243.84;;;25.53;27.33
66430;BME280;53242;51.694;10.006;2022-08-07T14:05:34;100233.50;;;25.66;27.43
66430;BME280;53242;51.694;10.006;2022-08-07T14:07:57;100226.75;;;25.63;27.63
66430;BME280;53242;51.694;10.006;2022-08-07T14:10:21;100228.31;;;25.80;27.72
66430;BME280;53242;51.694;10.006;2022-08-07T14:17:43;100219.94;;;25.76;27.58
66430;BME280;53242;51.694;10.006;2022-08-07T14:20:19;100216.94;;;25.83;28.45
66430;BME280;53242;51.694;10.006;2022-08-07T14:22:50;100211.81;;;25.81;28.03
66430;BME280;53242;51.694;10.006;2022-08-07T14:25:15;100220.00;;;25.66;27.78
66430;BME280;53242;51.694;10.006;2022-08-07T14:27:48;100207.81;;;25.68;28.44
66430;BME280;53242;51.694;10.006;2022-08-07T14:30:13;100215.44;;;25.61;27.96
66430;BME280;53242;51.694;10.006;2022-08-07T14:33:06;100205.19;;;25.53;28.55
66430;BME280;53242;51.694;10.006;2022-08-07T14:35:35;100214.06;;;25.64;27.87
66430;BME280;53242;51.694;10.006;2022-08-07T14:37:58;100202.72;;;25.61;27.97
66430;BME280;53242;51.694;10.006;2022-08-07T14:40:26;100202.47;;;25.53;27.92
66430;BME280;53242;51.694;10.006;2022-08-07T14:43:00;100194.94;;;25.50;27.75
66430;BME280;53242;51.694;10.006;2022-08-07T14:45:25;100191.94;;;25.56;27.90